Time;durP1;ratioP1;P1;durP2;ratioP2;P2;SDS_P1;SDS_P2;PMS_P1;PMS_P2;Temp;Humidity;BMP_temperature;BMP_pressure;BME280_temperature;BME280_humidity;BME280_pressure;Samples;Min_cycle;Max_cycle;Signal;HPM_P1;HPM_P2
2024/03/24 00:00:13;;;;;;;1.05;0.85;;;;;;;4.18;93.59;98452.94;5085746;28;20025;-69
2024/03/24 00:02:41;;;;;;;0.57;0.57;;;;;;;4.19;93.95;98444.38;5085341;28;20078;-69
2024/03/24 00:05:07;;;;;;;0.77;0.77;;;;;;;4.19;93.80;98451.22;5085243;28;20444;-70
2024/03/24 00:07:33;;;;;;;2.30;1.10;;;;;;;4.17;93.90;98448.66;5085154;28;20025;-70
2024/03/24 00:09:58;;;;;;;6.57;2.92;;;;;;;4.21;94.01;98442.63;5085361;28;20029;-69
2024/03/24 00:12:23;;;;;;;1.67;1.58;;;;;;;4.20;94.01;98450.34;5085054;28;20025;-69
2024/03/24 00:14:49;;;;;;;0.75;0.75;;;;;;;4.20;94.19;98440.91;5085366;28;20027;-69
2024/03/24 00:17:14;;;;;;;15.45;1.10;;;;;;;4.18;93.86;98422.13;5083720;28;20095;-69
2024/03/24 00:19:39;;;;;;;0.40;0.40;;;;;;;4.19;94.14;98431.53;5084846;28;20046;-70
2024/03/24 00:22:05;;;;;;;1.17;1.10;;;;;;;4.24;94.18;98439.16;5084916;28;20032;-70
2024/03/24 00:24:31;;;;;;;0.50;0.50;;;;;;;4.21;94.05;98437.50;5085109;28;20025;-72
2024/03/24 00:26:57;;;;;;;1.40;0.93;;;;;;;4.13;94.33;98431.59;5084899;28;20031;-69
2024/03/24 00:29:22;;;;;;;1.00;0.82;;;;;;;4.11;94.34;98424.78;5085186;28;20052;-70
2024/03/24 00:31:47;;;;;;;4.97;1.70;;;;;;;4.06;94.50;98432.53;5084905;28;20039;-71
2024/03/24 00:34:12;;;;;;;1.60;0.50;;;;;;;4.02;94.53;98436.03;5084912;28;20024;-72
2024/03/24 00:36:38;;;;;;;0.73;0.73;;;;;;;3.94;94.16;98433.56;5083803;28;20031;-71
2024/03/24 00:39:06;;;;;;;0.85;0.70;;;;;;;3.84;94.02;98443.09;5085018;28;20076;-72
2024/03/24 00:41:32;;;;;;;0.40;0.40;;;;;;;3.75;94.27;98438.09;5084873;28;20028;-73
2024/03/24 00:43:57;;;;;;;0.93;0.93;;;;;;;3.70;94.25;98435.59;5083671;28;20028;-72
2024/03/24 00:46:22;;;;;;;6.07;0.98;;;;;;;3.64;94.41;98431.38;5084664;28;20024;-72
2024/03/24 00:48:48;;;;;;;0.88;0.50;;;;;;;3.58;94.14;98440.00;5083774;28;20052;-72
2024/03/24 00:51:14;;;;;;;0.98;0.82;;;;;;;3.54;94.16;98427.22;5084809;28;20035;-71
2024/03/24 00:53:40;;;;;;;0.40;0.40;;;;;;;3.47;94.31;98417.03;5084775;28;20519;-70
2024/03/24 00:56:05;;;;;;;0.52;0.52;;;;;;;3.51;94.33;98427.25;5084894;28;20084;-71
2024/03/24 00:58:31;;;;;;;0.50;0.50;;;;;;;3.51;94.49;98422.13;5084867;28;20028;-71
2024/03/24 01:00:56;;;;;;;1.58;1.00;;;;;;;3.52;94.26;98418.69;5083246;28;20469;-70
2024/03/24 01:03:22;;;;;;;2.92;1.02;;;;;;;3.52;94.50;98413.56;5084308;28;20031;-70
2024/03/24 01:05:48;;;;;;;1.25;1.23;;;;;;;3.49;94.48;98411.03;5083443;28;20074;-70
2024/03/24 01:08:14;;;;;;;2.20;2.00;;;;;;;3.46;94.38;98405.09;5083120;28;20107;-71
2024/03/24 01:10:40;;;;;;;0.85;0.80;;;;;;;3.43;94.48;98394.84;5087947;28;20388;-70
2024/03/24 01:13:05;;;;;;;2.50;1.58;;;;;;;3.43;94.82;98396.56;5088493;28;20031;-71
2024/03/24 01:15:31;;;;;;;0.50;0.50;;;;;;;3.42;95.05;98405.97;5088633;28;20016;-72
2024/03/24 01:17:56;;;;;;;0.47;0.47;;;;;;;3.44;95.50;98399.09;5088470;28;20013;-72
2024/03/24 01:20:22;;;;;;;0.50;0.50;;;;;;;3.44;95.65;98385.41;5088243;28;20112;-71
2024/03/24 01:22:47;;;;;;;0.40;0.40;;;;;;;3.44;95.82;98390.56;5088538;28;20036;-71
2024/03/24 01:25:12;;;;;;;0.40;0.40;;;;;;;3.44;96.12;98391.41;5088662;28;20024;-71
2024/03/24 01:27:38;;;;;;;0.40;0.40;;;;;;;3.40;96.58;98391.47;5088292;28;20392;-72
2024/03/24 01:30:03;;;;;;;0.40;0.40;;;;;;;3.43;96.82;98391.44;5087254;28;20482;-71
2024/03/24 01:32:29;;;;;;;0.40;0.40;;;;;;;3.45;97.15;98390.53;5087987;28;20025;-71
2024/03/24 01:34:54;;;;;;;0.50;0.50;;;;;;;3.46;97.21;98387.13;5088314;28;20024;-71
2024/03/24 01:37:20;;;;;;;0.40;0.40;;;;;;;3.46;97.46;98387.13;5088290;28;20039;-72
2024/03/24 01:39:46;;;;;;;0.40;0.40;;;;;;;3.55;97.66;98388.72;5088303;28;20031;-72
2024/03/24 01:42:13;;;;;;;0.40;0.40;;;;;;;3.57;97.66;98375.88;5087932;28;20025;-73
2024/03/24 01:44:39;;;;;;;0.50;0.50;;;;;;;3.61;97.78;98374.94;5088059;28;20044;-72
2024/03/24 01:47:04;;;;;;;0.70;0.70;;;;;;;3.60;97.64;98375.81;5087904;28;20021;-72
2024/03/24 01:49:30;;;;;;;0.40;0.40;;;;;;;3.59;97.52;98369.00;5086659;28;20027;-72
2024/03/24 01:51:56;;;;;;;0.40;0.40;;;;;;;3.55;97.85;98378.44;5086309;28;20082;-72
2024/03/24 01:54:23;;;;;;;0.40;0.40;;;;;;;3.54;97.83;98373.34;5087878;28;20024;-72
2024/03/24 01:56:48;;;;;;;0.40;0.40;;;;;;;3.56;98.26;98375.00;5087707;28;20028;-72
2024/03/24 01:59:13;;;;;;;0.40;0.40;;;;;;;3.55;98.72;98375.88;5087901;28;20023;-72
2024/03/24 02:01:39;;;;;;;0.45;0.45;;;;;;;3.59;98.35;98376.69;5087526;28;20481;-71
2024/03/24 02:04:09;;;;;;;0.40;0.40;;;;;;;3.59;98.69;98371.56;5087647;28;20024;-72
2024/03/24 02:06:35;;;;;;;0.47;0.47;;;;;;;3.60;98.95;98375.81;5087563;28;20182;-73
2024/03/24 02:09:00;;;;;;;0.40;0.40;;;;;;;3.57;99.12;98369.03;5087620;28;20028;-73
2024/03/24 02:11:25;;;;;;;0.40;0.40;;;;;;;3.56;98.95;98362.19;5087772;28;20375;-72
2024/03/24 02:14:02;;;;;;;0.40;0.40;;;;;;;3.61;99.42;98363.84;5087401;28;20031;-71
2024/03/24 02:16:28;;;;;;;0.40;0.40;;;;;;;3.60;99.53;98363.00;5087361;28;20107;-72
2024/03/24 02:18:53;;;;;;;0.40;0.40;;;;;;;3.65;99.44;98365.50;5085883;28;20098;-71
2024/03/24 02:21:18;;;;;;;2.55;2.35;;;;;;;3.59;99.79;98362.13;5085019;28;20035;-72
2024/03/24 02:23:44;;;;;;;0.40;0.40;;;;;;;3.64;99.83;98366.38;5087198;28;20076;-71
2024/03/24 02:26:09;;;;;;;0.40;0.40;;;;;;;3.67;100.00;98358.63;5087332;28;20026;-72
2024/03/24 02:28:34;;;;;;;2.25;2.05;;;;;;;3.75;99.96;98366.22;5086891;28;20060;-71
2024/03/24 02:31:00;;;;;;;0.40;0.40;;;;;;;3.73;99.89;98363.69;5087164;28;20031;-72
2024/03/24 02:33:26;;;;;;;0.40;0.40;;;;;;;3.75;100.00;98361.09;5087129;28;20027;-72
2024/03/24 02:35:51;;;;;;;0.40;0.40;;;;;;;3.71;100.00;98353.44;5087068;28;20423;-72
2024/03/24 02:38:17;;;;;;;0.73;0.73;;;;;;;3.69;100.00;98350.03;5086820;28;20028;-71
2024/03/24 02:40:42;;;;;;;0.45;0.45;;;;;;;3.75;100.00;98351.69;5086934;28;20040;-72
2024/03/24 02:43:08;;;;;;;0.50;0.50;;;;;;;3.69;100.00;98347.47;5086747;28;20044;-70
2024/03/24 02:45:33;;;;;;;0.55;0.55;;;;;;;3.69;100.00;98346.63;5087099;28;20028;-71
2024/03/24 02:47:58;;;;;;;0.40;0.40;;;;;;;3.69;100.00;98352.59;5087028;28;20056;-71
2024/03/24 02:50:24;;;;;;;0.40;0.40;;;;;;;3.69;100.00;98344.91;5087081;28;20035;-70
2024/03/24 02:52:50;;;;;;;0.40;0.40;;;;;;;3.70;100.00;98348.31;5086574;28;20017;-72
2024/03/24 02:55:15;;;;;;;0.40;0.40;;;;;;;3.66;100.00;98346.69;5086646;28;20024;-71
2024/03/24 02:57:42;;;;;;;0.40;0.40;;;;;;;3.67;100.00;98344.09;5086426;28;20017;-71
2024/03/24 03:00:11;;;;;;;0.40;0.40;;;;;;;3.58;100.00;98328.78;5086590;28;20016;-71
2024/03/24 03:02:36;;;;;;;0.40;0.40;;;;;;;3.70;100.00;98341.50;5086001;28;20469;-69
2024/03/24 03:05:02;;;;;;;0.50;0.50;;;;;;;3.73;100.00;98343.16;5086647;28;20032;-71
2024/03/24 03:07:27;;;;;;;0.40;0.40;;;;;;;3.76;100.00;98342.25;5086333;28;20034;-72
2024/03/24 03:09:54;;;;;;;0.40;0.40;;;;;;;3.79;100.00;98343.06;5086709;28;20226;-70
2024/03/24 03:12:20;;;;;;;0.40;0.40;;;;;;;3.78;100.00;98348.22;5086499;28;20021;-71
2024/03/24 03:14:46;;;;;;;0.40;0.40;;;;;;;3.80;100.00;98339.63;5086233;28;20115;-71
2024/03/24 03:17:11;;;;;;;0.40;0.40;;;;;;;3.83;100.00;98349.00;5086274;28;20028;-70
2024/03/24 03:19:36;;;;;;;0.40;0.40;;;;;;;3.82;100.00;98347.28;5086132;28;20056;-71
2024/03/24 03:22:03;;;;;;;0.40;0.40;;;;;;;3.85;100.00;98344.69;5085804;28;20039;-70
2024/03/24 03:24:28;;;;;;;0.50;0.50;;;;;;;3.81;100.00;98338.75;5086222;28;20099;-70
2024/03/24 03:26:54;;;;;;;1.02;1.02;;;;;;;3.76;100.00;98332.84;5086208;28;20074;-69
2024/03/24 03:29:19;;;;;;;0.40;0.40;;;;;;;3.80;100.00;98329.34;5085864;28;20020;-71
2024/03/24 03:31:45;;;;;;;0.47;0.47;;;;;;;3.83;100.00;98331.03;5085744;28;20056;-71
2024/03/24 03:34:10;;;;;;;0.50;0.50;;;;;;;3.83;100.00;98331.03;5084517;28;20020;-70
2024/03/24 03:36:36;;;;;;;0.40;0.40;;;;;;;3.87;100.00;98329.25;5086011;28;20024;-70
2024/03/24 03:39:01;;;;;;;0.40;0.40;;;;;;;3.88;100.00;98336.97;5084662;28;20464;-70
2024/03/24 03:41:26;;;;;;;0.47;0.47;;;;;;;3.88;100.00;98324.13;5085827;28;20024;-71
2024/03/24 03:43:52;;;;;;;0.43;0.43;;;;;;;3.91;100.00;98321.50;5085679;28;20044;-70
2024/03/24 03:46:17;;;;;;;0.40;0.40;;;;;;;3.90;100.00;98319.78;5085700;28;20445;-69
2024/03/24 03:48:44;;;;;;;0.40;0.40;;;;;;;3.88;100.00;98319.00;5085775;28;20025;-69
2024/03/24 03:51:17;;;;;;;0.45;0.45;;;;;;;3.84;100.00;98317.31;5085669;28;20032;-69
2024/03/24 03:53:48;;;;;;;0.40;0.40;;;;;;;3.88;100.00;98325.84;5084317;28;20013;-70
2024/03/24 03:56:13;;;;;;;0.40;0.40;;;;;;;3.84;100.00;98313.06;5084354;28;20070;-69
2024/03/24 03:58:41;;;;;;;0.40;0.40;;;;;;;3.88;100.00;98321.56;5085458;28;20024;-70
2024/03/24 04:01:07;;;;;;;0.40;0.40;;;;;;;3.89;100.00;98318.13;5083710;28;20107;-70
2024/03/24 04:03:33;;;;;;;0.40;0.40;;;;;;;3.87;100.00;98314.72;5085163;28;20385;-69
2024/03/24 04:06:02;;;;;;;0.50;0.50;;;;;;;3.88;100.00;98311.28;5085476;28;20024;-70
2024/03/24 04:08:27;;;;;;;0.40;0.40;;;;;;;3.86;100.00;98312.16;5083368;28;20122;-70
2024/03/24 04:10:53;;;;;;;0.57;0.57;;;;;;;3.86;100.00;98307.03;5085144;28;20054;-70
2024/03/24 04:13:18;;;;;;;0.40;0.40;;;;;;;3.90;100.00;98312.09;5084777;28;20032;-70
2024/03/24 04:15:43;;;;;;;0.63;0.63;;;;;;;3.92;100.00;98314.63;5085114;28;20112;-70
2024/03/24 04:18:09;;;;;;;0.50;0.50;;;;;;;3.95;100.00;98318.00;5084961;28;20037;-71
2024/03/24 04:20:37;;;;;;;0.40;0.40;;;;;;;3.93;100.00;98319.75;5084809;28;20049;-70
2024/03/24 04:23:05;;;;;;;0.40;0.40;;;;;;;3.92;100.00;98315.50;5085065;28;20039;-70
2024/03/24 04:25:31;;;;;;;0.40;0.40;;;;;;;3.91;100.00;98316.38;5085341;28;20020;-72
2024/03/24 04:27:57;;;;;;;0.40;0.40;;;;;;;3.91;100.00;98315.53;5085080;28;20023;-70
2024/03/24 04:30:22;;;;;;;0.40;0.40;;;;;;;3.88;100.00;98306.16;5085061;28;20028;-70
2024/03/24 04:32:47;;;;;;;0.40;0.40;;;;;;;3.90;100.00;98309.53;5083723;28;20012;-69
2024/03/24 04:35:13;;;;;;;0.40;0.40;;;;;;;3.95;100.00;98310.31;5085068;28;20031;-70
2024/03/24 04:37:38;;;;;;;0.47;0.47;;;;;;;3.96;100.00;98312.00;5085014;28;20046;-70
2024/03/24 04:40:08;;;;;;;0.40;0.40;;;;;;;3.99;100.00;98305.13;5085255;28;20028;-70
2024/03/24 04:42:34;;;;;;;0.82;0.77;;;;;;;4.00;100.00;98314.53;5083466;28;20444;-70
2024/03/24 04:45:03;;;;;;;0.40;0.40;;;;;;;4.02;100.00;98312.78;5084452;28;20032;-70
2024/03/24 04:47:29;;;;;;;0.40;0.40;;;;;;;3.98;100.00;98322.25;5084932;28;20040;-70
2024/03/24 04:49:55;;;;;;;0.40;0.40;;;;;;;3.94;100.00;98303.50;5084990;28;20048;-71
2024/03/24 04:52:20;;;;;;;0.82;0.80;;;;;;;3.97;100.00;98313.72;5084847;28;20027;-70
2024/03/24 04:54:45;;;;;;;0.40;0.40;;;;;;;3.96;100.00;98313.75;5083617;28;20103;-70
2024/03/24 04:57:11;;;;;;;0.43;0.43;;;;;;;3.96;100.00;98308.59;5084973;28;20021;-70
2024/03/24 04:59:36;;;;;;;0.40;0.40;;;;;;;3.97;100.00;98321.41;5085159;28;20021;-70
2024/03/24 05:02:02;;;;;;;0.40;0.40;;;;;;;3.94;100.00;98316.34;5083510;28;20119;-69
2024/03/24 05:04:27;;;;;;;0.43;0.43;;;;;;;3.99;100.00;98323.97;5085249;28;20025;-70
2024/03/24 05:06:52;;;;;;;0.38;0.38;;;;;;;3.97;100.00;98325.69;5084676;28;20364;-70
2024/03/24 05:09:20;;;;;;;0.40;0.40;;;;;;;3.98;100.00;98322.25;5084618;28;20092;-70
2024/03/24 05:11:46;;;;;;;0.40;0.40;;;;;;;4.00;100.00;98322.22;5084667;28;20036;-69
2024/03/24 05:14:11;;;;;;;0.40;0.40;;;;;;;4.05;100.00;98320.44;5084639;28;20021;-70
2024/03/24 05:16:37;;;;;;;0.40;0.40;;;;;;;4.04;100.00;98321.31;5084375;28;20028;-70
2024/03/24 05:19:04;;;;;;;0.40;0.40;;;;;;;4.05;100.00;98318.72;5084502;28;20040;-70
2024/03/24 05:21:30;;;;;;;0.40;0.40;;;;;;;4.06;100.00;98325.56;5083238;28;20021;-69
2024/03/24 05:23:58;;;;;;;0.45;0.45;;;;;;;4.11;100.00;98328.03;5084506;28;20036;-70
2024/03/24 05:26:24;;;;;;;0.40;0.40;;;;;;;4.10;100.00;98326.38;5084632;28;20024;-69
2024/03/24 05:28:50;;;;;;;0.50;0.50;;;;;;;4.11;100.00;98322.91;5083140;28;20027;-70
2024/03/24 05:31:15;;;;;;;0.40;0.40;;;;;;;4.14;100.00;98319.47;5084258;28;20048;-70
2024/03/24 05:33:41;;;;;;;0.50;0.50;;;;;;;4.08;100.00;98305.84;5084441;28;20088;-70
2024/03/24 05:36:08;;;;;;;0.40;0.40;;;;;;;4.22;100.00;98325.31;5084570;28;20028;-69
2024/03/24 05:38:34;;;;;;;0.40;0.40;;;;;;;4.26;100.00;98320.97;5084416;28;20024;-69
2024/03/24 05:41:01;;;;;;;0.60;0.60;;;;;;;4.20;100.00;98321.94;5084206;28;20028;-70
2024/03/24 05:43:27;;;;;;;0.40;0.40;;;;;;;4.20;100.00;98330.47;5083929;28;20036;-70
2024/03/24 05:45:55;;;;;;;0.40;0.40;;;;;;;4.20;100.00;98330.47;5084610;28;20029;-70
2024/03/24 05:48:22;;;;;;;0.40;0.40;;;;;;;4.20;100.00;98317.63;5084179;28;20090;-70
2024/03/24 05:51:04;;;;;;;0.47;0.47;;;;;;;4.18;100.00;98311.69;5082654;28;20111;-70
2024/03/24 05:53:29;;;;;;;;;;;;;;;4.26;100.00;98326.13;5083390;28;20021;-69
2024/03/24 05:56:01;;;;;;;1.02;1.02;;;;;;;4.29;100.00;98320.91;5084706;28;19985;-70
2024/03/24 05:58:27;;;;;;;;;;;;;;;4.40;100.00;98326.72;5088194;28;20021;-70
2024/03/24 06:00:52;;;;;;;0.50;0.50;;;;;;;4.43;100.00;98331.81;5087751;28;19908;-70
2024/03/24 06:03:17;;;;;;;0.40;0.40;;;;;;;4.46;100.00;98331.78;5087502;28;20025;-69
2024/03/24 06:05:43;;;;;;;2.83;1.02;;;;;;;4.45;100.00;98326.66;5087702;28;20028;-70
2024/03/24 06:08:09;;;;;;;0.40;0.40;;;;;;;4.51;100.00;98339.41;5087559;28;20028;-69
2024/03/24 06:10:40;;;;;;;0.40;0.40;;;;;;;4.57;100.00;98335.84;5087677;28;20020;-71
2024/03/24 06:13:05;;;;;;;0.40;0.40;;;;;;;4.60;100.00;98330.66;5085809;28;20109;-70
2024/03/24 06:15:30;;;;;;;0.30;0.30;;;;;;;4.66;100.00;98335.72;5087459;28;20029;-70
2024/03/24 06:17:56;;;;;;;0.40;0.40;;;;;;;4.70;100.00;98333.94;5087468;28;20029;-71
2024/03/24 06:20:21;;;;;;;0.40;0.40;;;;;;;4.78;100.00;98336.34;5087338;28;20096;-71
2024/03/24 06:22:47;;;;;;;0.40;0.40;;;;;;;4.81;100.00;98334.59;5087144;28;20074;-69
2024/03/24 06:25:12;;;;;;;0.40;0.40;;;;;;;4.82;100.00;98336.25;5087431;28;20088;-71
2024/03/24 06:27:38;;;;;;;0.47;0.47;;;;;;;4.82;100.00;98332.88;5120190;28;20091;-70
2024/03/24 06:30:03;;;;;;;0.40;0.40;;;;;;;4.76;100.00;98336.38;5086215;28;20073;-69
2024/03/24 06:32:29;;;;;;;0.40;0.40;;;;;;;4.81;100.00;98334.59;5087186;28;20099;-70
2024/03/24 06:34:54;;;;;;;0.40;0.40;;;;;;;4.85;100.00;98332.81;5087443;28;20032;-69
2024/03/24 06:37:20;;;;;;;0.40;0.40;;;;;;;4.91;100.00;98340.41;5087479;28;20556;-69
2024/03/24 06:39:45;;;;;;;0.50;0.50;;;;;;;4.94;100.00;98330.06;5087287;28;20032;-69
2024/03/24 06:42:10;;;;;;;0.50;0.50;;;;;;;5.01;100.00;98346.22;5087231;28;20017;-69
2024/03/24 06:44:37;;;;;;;0.45;0.45;;;;;;;5.03;100.00;98338.50;5087398;28;20031;-69
2024/03/24 06:47:04;;;;;;;0.40;0.40;;;;;;;5.08;100.00;98346.94;5087443;28;20035;-70
2024/03/24 06:49:29;;;;;;;0.50;0.50;;;;;;;5.05;100.00;98336.72;5087198;28;20020;-69
2024/03/24 06:51:55;;;;;;;0.40;0.40;;;;;;;5.17;100.00;98346.78;5085940;28;20081;-70
2024/03/24 06:54:20;;;;;;;0.40;0.40;;;;;;;5.16;100.00;98355.38;5085517;28;20052;-68
2024/03/24 06:56:45;;;;;;;0.38;0.38;;;;;;;5.14;100.00;98357.13;5086694;28;20479;-69
2024/03/24 06:59:11;;;;;;;0.40;0.40;;;;;;;5.09;100.00;98353.81;5086454;28;20021;-69
2024/03/24 07:01:37;;;;;;;0.40;0.40;;;;;;;5.20;100.00;98356.16;5086621;28;20036;-69
2024/03/24 07:04:03;;;;;;;1.08;1.00;;;;;;;5.17;100.00;98354.50;5085622;28;20024;-68
2024/03/24 07:06:28;;;;;;;0.40;0.40;;;;;;;5.15;100.00;98342.53;5086418;28;20534;-69
2024/03/24 07:08:53;;;;;;;0.35;0.35;;;;;;;5.13;100.00;98350.28;5086246;28;20056;-70
2024/03/24 07:11:19;;;;;;;0.55;0.55;;;;;;;5.15;100.00;98357.97;5086611;28;20116;-69
2024/03/24 07:13:44;;;;;;;0.50;0.50;;;;;;;5.08;100.00;98341.78;5084883;28;20031;-70
2024/03/24 07:16:09;;;;;;;0.40;0.40;;;;;;;5.08;100.00;98358.09;5086400;28;20024;-70
2024/03/24 07:18:35;;;;;;;1.35;1.35;;;;;;;5.05;100.00;98359.84;5086177;28;20078;-70
2024/03/24 07:21:02;;;;;;;0.40;0.40;;;;;;;5.08;100.00;98358.09;5086336;28;20047;-69
2024/03/24 07:23:28;;;;;;;9.82;5.97;;;;;;;5.09;100.00;98358.94;5084825;28;20057;-69
2024/03/24 07:25:53;;;;;;;0.40;0.40;;;;;;;5.14;100.00;98359.72;5086211;28;20032;-70
2024/03/24 07:28:18;;;;;;;0.40;0.40;;;;;;;5.20;100.00;98359.59;5085848;28;20024;-70
2024/03/24 07:30:44;;;;;;;0.30;0.30;;;;;;;5.32;100.00;98367.91;5084482;28;20101;-69
2024/03/24 07:33:11;;;;;;;0.40;0.40;;;;;;;5.31;100.00;98363.66;5084265;28;20020;-67
2024/03/24 07:35:36;;;;;;;0.40;0.40;;;;;;;5.36;100.00;98363.56;5085845;28;20024;-70
2024/03/24 07:38:02;;;;;;;0.70;0.70;;;;;;;5.45;100.00;98360.81;5085674;28;20031;-70
2024/03/24 07:40:27;;;;;;;0.40;0.40;;;;;;;5.44;100.00;98352.25;5085853;28;20027;-70
2024/03/24 07:42:52;;;;;;;0.40;0.40;;;;;;;5.55;100.00;98366.63;5085194;28;20028;-70
2024/03/24 07:45:18;;;;;;;0.60;0.60;;;;;;;5.61;100.00;98363.91;5085674;28;20066;-71
2024/03/24 07:47:43;;;;;;;0.40;0.40;;;;;;;5.72;100.00;98373.97;5083753;28;20036;-71
2024/03/24 07:50:09;;;;;;;0.40;0.40;;;;;;;5.80;100.00;98374.66;5085835;28;20025;-72
2024/03/24 07:52:34;;;;;;;0.40;0.40;;;;;;;6.00;100.00;98367.38;5085116;28;20024;-72
2024/03/24 07:54:59;;;;;;;0.40;0.40;;;;;;;6.19;100.00;98365.25;5085645;28;20031;-72
2024/03/24 07:57:25;;;;;;;0.38;0.38;;;;;;;6.40;100.00;98363.06;5085581;28;20107;-72
2024/03/24 07:59:52;;;;;;;0.40;0.40;;;;;;;6.64;100.00;98374.50;5084190;28;20396;-72
2024/03/24 08:02:18;;;;;;;0.40;0.40;;;;;;;6.81;100.00;98374.06;5085271;28;20043;-73
2024/03/24 08:04:43;;;;;;;0.30;0.30;;;;;;;7.00;100.00;98375.28;5085309;28;20021;-74
2024/03/24 08:07:08;;;;;;;0.35;0.35;;;;;;;7.22;100.00;98374.75;5084004;28;20031;-73
2024/03/24 08:09:34;;;;;;;0.30;0.30;;;;;;;7.32;100.00;98378.75;5083367;28;20024;-73
2024/03/24 08:11:59;;;;;;;0.40;0.40;;;;;;;7.44;100.00;98380.16;5085184;28;20017;-72
2024/03/24 08:14:24;;;;;;;0.40;0.40;;;;;;;7.39;100.00;98371.69;5084724;28;20020;-72
2024/03/24 08:16:50;;;;;;;0.40;0.40;;;;;;;7.23;100.00;98363.50;5084970;28;20027;-72
2024/03/24 08:19:15;;;;;;;1.95;1.60;;;;;;;7.17;100.00;98382.59;5084270;28;20076;-72
2024/03/24 08:21:43;;;;;;;0.40;0.40;;;;;;;7.22;100.00;98377.31;5085001;28;20021;-74
2024/03/24 08:24:09;;;;;;;0.35;0.35;;;;;;;7.43;100.00;98381.88;5084787;28;20024;-74
2024/03/24 08:26:34;;;;;;;0.30;0.30;;;;;;;7.62;100.00;98389.09;5084895;28;20020;-74
2024/03/24 08:28:59;;;;;;;0.30;0.30;;;;;;;7.78;100.00;98380.91;5084771;28;20427;-72
2024/03/24 08:31:25;;;;;;;0.40;0.40;;;;;;;7.92;100.00;98386.50;5082963;28;20028;-70
2024/03/24 08:33:50;;;;;;;0.40;0.40;;;;;;;7.91;100.00;98394.28;5083289;28;20040;-71
2024/03/24 08:36:17;;;;;;;0.40;0.40;;;;;;;7.87;100.00;98388.38;5084670;28;20057;-72
2024/03/24 08:38:42;;;;;;;0.30;0.30;;;;;;;8.01;100.00;98400.88;5084622;28;20035;-73
2024/03/24 08:41:12;;;;;;;0.40;0.40;;;;;;;8.01;99.57;98389.69;5084657;28;20021;-72
2024/03/24 08:43:37;;;;;;;0.40;0.40;;;;;;;8.03;96.95;98396.53;5084336;28;20031;-72
2024/03/24 08:46:03;;;;;;;0.40;0.40;;;;;;;8.18;97.25;98396.91;5084702;28;20028;-73
2024/03/24 08:48:29;;;;;;;0.40;0.40;;;;;;;8.15;99.56;98395.28;5083258;28;20032;-72
2024/03/24 08:50:54;;;;;;;0.40;0.40;;;;;;;8.19;98.92;98402.03;5116934;28;20385;-72
2024/03/24 08:53:19;;;;;;;0.40;0.40;;;;;;;8.19;98.46;98399.44;5084605;28;20027;-72
2024/03/24 08:55:45;;;;;;;0.40;0.40;;;;;;;8.30;98.66;98391.38;5083307;28;20066;-71
2024/03/24 08:58:10;;;;;;;0.40;0.40;;;;;;;8.38;98.80;98398.03;5084727;28;20436;-72
2024/03/24 09:00:35;;;;;;;11.15;2.13;;;;;;;8.35;96.87;98401.59;5084432;28;20061;-72
2024/03/24 09:03:01;;;;;;;8.90;2.08;;;;;;;8.58;98.75;98399.19;5084215;28;20430;-72
2024/03/24 09:05:26;;;;;;;6.38;2.55;;;;;;;8.61;97.68;98401.66;5084643;28;20131;-72
2024/03/24 09:07:51;;;;;;;8.77;1.95;;;;;;;8.73;97.01;98390.06;5084432;28;20021;-73
2024/03/24 09:10:17;;;;;;;5.22;2.35;;;;;;;8.80;94.30;98396.72;5084849;28;20024;-73
2024/03/24 09:12:42;;;;;;;3.95;2.33;;;;;;;8.90;95.58;98403.28;5084032;28;20025;-73
2024/03/24 09:15:08;;;;;;;10.32;2.78;;;;;;;8.89;97.66;98414.53;5084633;28;20031;-71
2024/03/24 09:17:33;;;;;;;6.25;2.92;;;;;;;8.78;95.02;98406.28;5084605;28;20016;-72
2024/03/24 09:19:59;;;;;;;13.77;2.42;;;;;;;8.69;96.38;98417.75;5084393;28;20488;-73
2024/03/24 09:22:24;;;;;;;2.08;1.42;;;;;;;8.48;94.06;98411.53;5084421;28;20020;-73
2024/03/24 09:24:49;;;;;;;2.85;2.30;;;;;;;8.29;93.05;98414.72;5083981;28;20039;-68
2024/03/24 09:27:15;;;;;;;1.52;1.30;;;;;;;8.26;93.31;98415.63;5084160;28;20040;-71
2024/03/24 09:29:40;;;;;;;5.38;2.75;;;;;;;8.12;94.98;98415.19;5084531;28;20024;-72
2024/03/24 09:32:06;;;;;;;3.45;1.55;;;;;;;7.91;96.23;98409.78;5087848;28;20039;-71
2024/03/24 09:34:31;;;;;;;6.60;2.20;;;;;;;7.78;97.32;98417.91;5087890;28;20024;-71
2024/03/24 09:36:56;;;;;;;4.55;2.55;;;;;;;7.73;96.26;98422.34;5088167;28;20085;-71
2024/03/24 09:39:22;;;;;;;11.18;2.05;;;;;;;7.67;96.97;98417.38;5087059;28;20034;-70
2024/03/24 09:41:47;;;;;;;5.55;2.70;;;;;;;7.73;96.90;98427.50;5087527;28;20539;-71
2024/03/24 09:44:14;;;;;;;3.15;2.05;;;;;;;7.67;97.57;98425.13;5087851;28;20012;-71
2024/03/24 09:46:44;;;;;;;10.23;2.70;;;;;;;7.43;97.59;98425.75;5087486;28;20182;-72
2024/03/24 09:49:16;;;;;;;3.55;2.63;;;;;;;7.42;98.90;98428.38;5086009;28;20095;-72
2024/03/24 09:51:43;;;;;;;11.73;2.42;;;;;;;7.39;99.00;98429.34;5087408;28;20040;-72
2024/03/24 09:54:13;;;;;;;11.98;3.17;;;;;;;7.22;99.15;98410.88;5087719;28;20021;-72
2024/03/24 09:56:40;;;;;;;4.38;2.97;;;;;;;7.27;99.91;98424.47;5088002;28;20020;-71
2024/03/24 09:59:06;;;;;;;2.25;1.30;;;;;;;7.24;100.00;98416.81;5086451;28;20080;-72
2024/03/24 10:01:33;;;;;;;3.97;3.08;;;;;;;7.42;100.00;98425.81;5086021;28;20021;-72
2024/03/24 10:04:00;;;;;;;6.90;2.80;;;;;;;7.50;100.00;98425.59;5086332;28;20028;-71
2024/03/24 10:06:26;;;;;;;1.85;1.65;;;;;;;7.48;100.00;98424.78;5087903;28;20039;-73
2024/03/24 10:08:51;;;;;;;5.50;2.42;;;;;;;7.41;100.00;98424.94;5087625;28;20042;-73
2024/03/24 10:11:27;;;;;;;2.13;1.27;;;;;;;7.38;100.00;98435.38;5087984;28;20052;-72
2024/03/24 10:13:54;;;;;;;10.80;2.60;;;;;;;7.32;100.00;98422.63;5087430;28;20016;-72
2024/03/24 10:16:20;;;;;;;5.72;2.35;;;;;;;7.38;100.00;98431.97;5087683;28;20070;-72
2024/03/24 10:18:45;;;;;;;4.40;2.45;;;;;;;7.40;100.00;98433.59;5087400;28;20089;-72
2024/03/24 10:21:11;;;;;;;4.03;1.73;;;;;;;7.39;100.00;98429.34;5087481;28;20033;-72
2024/03/24 10:23:38;;;;;;;3.85;2.33;;;;;;;7.36;100.00;98434.59;5087429;28;20024;-71
2024/03/24 10:26:04;;;;;;;2.33;1.42;;;;;;;7.25;100.00;98442.59;5086220;28;20093;-72
2024/03/24 10:28:29;;;;;;;2.72;1.75;;;;;;;7.18;100.00;98439.34;5087405;28;20447;-73
2024/03/24 10:31:13;;;;;;;7.32;1.90;;;;;;;7.11;100.00;98445.53;5085992;28;20044;-72
2024/03/24 10:33:38;;;;;;;1.80;1.63;;;;;;;7.11;100.00;98442.13;5087131;28;20050;-72
2024/03/24 10:36:05;;;;;;;5.10;2.92;;;;;;;7.07;99.82;98438.78;5087242;28;20029;-72
2024/03/24 10:38:31;;;;;;;4.22;1.73;;;;;;;6.92;99.18;98434.84;5087176;28;20031;-72
2024/03/24 10:40:57;;;;;;;3.72;1.88;;;;;;;6.92;99.81;98432.25;5085558;28;20024;-72
2024/03/24 10:43:24;;;;;;;4.00;2.70;;;;;;;7.00;100.00;98442.38;5086051;28;20020;-72
2024/03/24 10:45:53;;;;;;;2.88;1.95;;;;;;;7.19;100.00;98433.28;5087154;28;20048;-72
2024/03/24 10:48:40;;;;;;;10.00;1.95;;;;;;;7.41;100.00;98432.69;5086914;28;20024;-73
2024/03/24 10:51:09;;;;;;;18.38;2.60;;;;;;;7.53;100.00;98439.28;5086706;28;20021;-73
2024/03/24 10:53:35;;;;;;;5.35;2.67;;;;;;;7.65;100.00;98440.66;5085027;28;20126;-73
2024/03/24 10:56:01;;;;;;;16.42;2.63;;;;;;;7.66;100.00;98438.94;5086548;28;20067;-72
2024/03/24 10:58:28;;;;;;;8.95;2.70;;;;;;;7.83;100.00;98443.59;5086423;28;20025;-73
2024/03/24 11:00:54;;;;;;;2.78;1.55;;;;;;;7.98;100.00;98439.75;5086389;28;20039;-73
2024/03/24 11:03:22;;;;;;;6.40;2.38;;;;;;;8.47;100.00;98446.88;5086042;28;20117;-73
2024/03/24 11:05:51;;;;;;;2.72;1.65;;;;;;;9.10;100.00;98442.31;5086544;28;20016;-74
2024/03/24 11:08:19;;;;;;;5.00;2.53;;;;;;;9.36;100.00;98428.47;5086395;28;20078;-73
2024/03/24 11:10:56;;;;;;;2.28;1.60;;;;;;;9.52;100.00;98435.72;5086288;28;20107;-75
2024/03/24 11:13:27;;;;;;;2.75;1.25;;;;;;;9.45;99.48;98436.81;5086382;28;20354;-74
2024/03/24 11:15:53;;;;;;;5.13;1.60;;;;;;;9.44;97.13;98437.72;5086330;28;20024;-73
2024/03/24 11:18:29;;;;;;;13.65;2.75;;;;;;;9.47;95.08;98441.06;5085898;28;20082;-74
2024/03/24 11:20:57;;;;;;;3.10;1.90;;;;;;;9.48;90.50;98444.47;5085655;28;20036;-73
2024/03/24 11:23:32;;;;;;;3.33;2.35;;;;;;;9.54;89.15;98441.66;5085831;28;20028;-74
2024/03/24 11:26:02;;;;;;;2.80;2.08;;;;;;;9.81;89.43;98451.91;5085869;28;20028;-74
2024/03/24 11:28:50;;;;;;;3.22;1.83;;;;;;;10.00;92.56;98446.06;5085469;28;20430;-73
2024/03/24 11:31:22;;;;;;;4.70;2.38;;;;;;;10.30;93.08;98450.97;5085956;28;20028;-73